sensor_id;sensor_type;location;lat;lon;timestamp;P1;durP1;ratioP1;P2;durP2;ratioP2
15383;SDS011;7790;53.022;12.968;2024-02-14T00:01:33;0.50;;;0.50;;
15383;SDS011;7790;53.022;12.968;2024-02-14T00:05:33;1.27;;;0.60;;
15383;SDS011;7790;53.022;12.968;2024-02-14T00:09:35;0.93;;;0.70;;
15383;SDS011;7790;53.022;12.968;2024-02-14T00:13:35;0.70;;;0.70;;
15383;SDS011;7790;53.022;12.968;2024-02-14T00:17:36;0.67;;;0.67;;
15383;SDS011;7790;53.022;12.968;2024-02-14T00:21:37;0.97;;;0.70;;
15383;SDS011;7790;53.022;12.968;2024-02-14T00:25:39;0.87;;;0.70;;
15383;SDS011;7790;53.022;12.968;2024-02-14T00:29:40;0.80;;;0.70;;
15383;SDS011;7790;53.022;12.968;2024-02-14T00:33:41;0.57;;;0.50;;
15383;SDS011;7790;53.022;12.968;2024-02-14T00:37:42;0.73;;;0.63;;
15383;SDS011;7790;53.022;12.968;2024-02-14T00:41:43;0.73;;;0.67;;
15383;SDS011;7790;53.022;12.968;2024-02-14T00:45:46;0.80;;;0.80;;
15383;SDS011;7790;53.022;12.968;2024-02-14T00:49:47;0.70;;;0.70;;
15383;SDS011;7790;53.022;12.968;2024-02-14T00:53:48;0.57;;;0.53;;
15383;SDS011;7790;53.022;12.968;2024-02-14T00:57:49;1.23;;;0.80;;
15383;SDS011;7790;53.022;12.968;2024-02-14T01:01:50;0.70;;;0.70;;
15383;SDS011;7790;53.022;12.968;2024-02-14T01:05:50;1.17;;;0.70;;
15383;SDS011;7790;53.022;12.968;2024-02-14T01:09:51;1.93;;;0.60;;
15383;SDS011;7790;53.022;12.968;2024-02-14T01:13:52;0.60;;;0.60;;
15383;SDS011;7790;53.022;12.968;2024-02-14T01:17:53;1.43;;;0.60;;
15383;SDS011;7790;53.022;12.968;2024-02-14T01:21:54;0.50;;;0.50;;
15383;SDS011;7790;53.022;12.968;2024-02-14T01:25:56;0.60;;;0.60;;
15383;SDS011;7790;53.022;12.968;2024-02-14T01:29:57;1.17;;;0.70;;
15383;SDS011;7790;53.022;12.968;2024-02-14T01:33:58;0.70;;;0.70;;
15383;SDS011;7790;53.022;12.968;2024-02-14T01:38:01;0.43;;;0.43;;
15383;SDS011;7790;53.022;12.968;2024-02-14T01:42:03;0.53;;;0.53;;
15383;SDS011;7790;53.022;12.968;2024-02-14T01:46:07;1.93;;;0.60;;
15383;SDS011;7790;53.022;12.968;2024-02-14T01:50:08;0.60;;;0.60;;
15383;SDS011;7790;53.022;12.968;2024-02-14T01:54:12;0.60;;;0.60;;
15383;SDS011;7790;53.022;12.968;2024-02-14T01:58:13;0.50;;;0.50;;
15383;SDS011;7790;53.022;12.968;2024-02-14T02:02:14;0.60;;;0.47;;
15383;SDS011;7790;53.022;12.968;2024-02-14T02:06:16;0.60;;;0.60;;
15383;SDS011;7790;53.022;12.968;2024-02-14T02:10:17;0.60;;;0.60;;
15383;SDS011;7790;53.022;12.968;2024-02-14T02:14:18;0.70;;;0.70;;
15383;SDS011;7790;53.022;12.968;2024-02-14T02:18:19;0.50;;;0.50;;
15383;SDS011;7790;53.022;12.968;2024-02-14T02:22:20;0.63;;;0.63;;
15383;SDS011;7790;53.022;12.968;2024-02-14T02:26:21;0.73;;;0.60;;
15383;SDS011;7790;53.022;12.968;2024-02-14T02:30:22;0.50;;;0.50;;
15383;SDS011;7790;53.022;12.968;2024-02-14T02:34:23;0.50;;;0.50;;
15383;SDS011;7790;53.022;12.968;2024-02-14T02:38:23;0.60;;;0.60;;
15383;SDS011;7790;53.022;12.968;2024-02-14T02:42:24;0.90;;;0.90;;
15383;SDS011;7790;53.022;12.968;2024-02-14T02:46:25;0.83;;;0.60;;
15383;SDS011;7790;53.022;12.968;2024-02-14T02:50:26;1.00;;;0.70;;
15383;SDS011;7790;53.022;12.968;2024-02-14T02:54:27;0.70;;;0.70;;
15383;SDS011;7790;53.022;12.968;2024-02-14T02:58:28;0.63;;;0.60;;
15383;SDS011;7790;53.022;12.968;2024-02-14T03:02:30;0.57;;;0.57;;
15383;SDS011;7790;53.022;12.968;2024-02-14T03:06:31;0.50;;;0.50;;
15383;SDS011;7790;53.022;12.968;2024-02-14T03:10:32;1.40;;;0.90;;
15383;SDS011;7790;53.022;12.968;2024-02-14T03:14:32;0.50;;;0.50;;
15383;SDS011;7790;53.022;12.968;2024-02-14T03:18:33;1.27;;;0.63;;
15383;SDS011;7790;53.022;12.968;2024-02-14T03:22:34;1.23;;;0.63;;
15383;SDS011;7790;53.022;12.968;2024-02-14T03:26:35;2.93;;;1.00;;
15383;SDS011;7790;53.022;12.968;2024-02-14T03:30:36;2.50;;;0.83;;
15383;SDS011;7790;53.022;12.968;2024-02-14T03:34:39;2.43;;;0.90;;
15383;SDS011;7790;53.022;12.968;2024-02-14T03:38:40;0.83;;;0.60;;
15383;SDS011;7790;53.022;12.968;2024-02-14T03:42:41;2.37;;;0.70;;
15383;SDS011;7790;53.022;12.968;2024-02-14T03:46:42;0.90;;;0.80;;
15383;SDS011;7790;53.022;12.968;2024-02-14T03:50:43;0.83;;;0.73;;
15383;SDS011;7790;53.022;12.968;2024-02-14T03:54:44;1.13;;;0.80;;
15383;SDS011;7790;53.022;12.968;2024-02-14T03:58:45;1.57;;;0.70;;
15383;SDS011;7790;53.022;12.968;2024-02-14T04:02:47;1.30;;;0.80;;
15383;SDS011;7790;53.022;12.968;2024-02-14T04:06:49;0.90;;;0.70;;
15383;SDS011;7790;53.022;12.968;2024-02-14T04:10:49;0.70;;;0.70;;
15383;SDS011;7790;53.022;12.968;2024-02-14T04:14:50;1.20;;;0.90;;
15383;SDS011;7790;53.022;12.968;2024-02-14T04:18:51;0.70;;;0.50;;
15383;SDS011;7790;53.022;12.968;2024-02-14T04:22:53;1.07;;;0.87;;
15383;SDS011;7790;53.022;12.968;2024-02-14T04:26:54;0.90;;;0.70;;
15383;SDS011;7790;53.022;12.968;2024-02-14T04:30:57;0.80;;;0.77;;
15383;SDS011;7790;53.022;12.968;2024-02-14T04:34:58;0.70;;;0.60;;
15383;SDS011;7790;53.022;12.968;2024-02-14T04:38:59;0.87;;;0.87;;
15383;SDS011;7790;53.022;12.968;2024-02-14T04:43:00;0.70;;;0.70;;
15383;SDS011;7790;53.022;12.968;2024-02-14T04:47:00;0.70;;;0.70;;
15383;SDS011;7790;53.022;12.968;2024-02-14T04:51:01;0.97;;;0.70;;
15383;SDS011;7790;53.022;12.968;2024-02-14T04:55:02;0.47;;;0.47;;
15383;SDS011;7790;53.022;12.968;2024-02-14T04:59:04;1.13;;;0.80;;
15383;SDS011;7790;53.022;12.968;2024-02-14T05:03:05;1.10;;;0.60;;
15383;SDS011;7790;53.022;12.968;2024-02-14T05:07:06;0.60;;;0.60;;
15383;SDS011;7790;53.022;12.968;2024-02-14T05:11:07;1.10;;;0.90;;
15383;SDS011;7790;53.022;12.968;2024-02-14T05:15:08;0.60;;;0.60;;
15383;SDS011;7790;53.022;12.968;2024-02-14T05:19:09;3.33;;;0.80;;
15383;SDS011;7790;53.022;12.968;2024-02-14T05:23:11;1.63;;;0.60;;
15383;SDS011;7790;53.022;12.968;2024-02-14T05:27:12;0.63;;;0.60;;
15383;SDS011;7790;53.022;12.968;2024-02-14T05:31:12;0.97;;;0.60;;
15383;SDS011;7790;53.022;12.968;2024-02-14T05:35:13;0.70;;;0.60;;
15383;SDS011;7790;53.022;12.968;2024-02-14T05:39:14;0.70;;;0.70;;
15383;SDS011;7790;53.022;12.968;2024-02-14T05:43:16;0.43;;;0.40;;
15383;SDS011;7790;53.022;12.968;2024-02-14T05:47:18;0.50;;;0.50;;
15383;SDS011;7790;53.022;12.968;2024-02-14T05:51:19;0.70;;;0.70;;
15383;SDS011;7790;53.022;12.968;2024-02-14T05:55:20;0.87;;;0.60;;
15383;SDS011;7790;53.022;12.968;2024-02-14T05:59:20;0.57;;;0.50;;
15383;SDS011;7790;53.022;12.968;2024-02-14T06:03:22;0.67;;;0.50;;
15383;SDS011;7790;53.022;12.968;2024-02-14T06:07:23;0.77;;;0.70;;
15383;SDS011;7790;53.022;12.968;2024-02-14T06:11:24;0.77;;;0.73;;
15383;SDS011;7790;53.022;12.968;2024-02-14T06:15:25;0.93;;;0.50;;
15383;SDS011;7790;53.022;12.968;2024-02-14T06:19:26;1.63;;;0.70;;
15383;SDS011;7790;53.022;12.968;2024-02-14T06:23:27;0.60;;;0.60;;
15383;SDS011;7790;53.022;12.968;2024-02-14T06:27:28;0.67;;;0.63;;
15383;SDS011;7790;53.022;12.968;2024-02-14T06:31:29;1.17;;;0.70;;
15383;SDS011;7790;53.022;12.968;2024-02-14T06:35:30;0.50;;;0.50;;
15383;SDS011;7790;53.022;12.968;2024-02-14T06:39:31;0.67;;;0.67;;
15383;SDS011;7790;53.022;12.968;2024-02-14T06:43:31;0.70;;;0.70;;
15383;SDS011;7790;53.022;12.968;2024-02-14T06:47:32;0.60;;;0.60;;
15383;SDS011;7790;53.022;12.968;2024-02-14T06:51:34;0.50;;;0.50;;
15383;SDS011;7790;53.022;12.968;2024-02-14T06:55:35;0.67;;;0.67;;
15383;SDS011;7790;53.022;12.968;2024-02-14T06:59:36;0.93;;;0.60;;
15383;SDS011;7790;53.022;12.968;2024-02-14T07:03:38;0.50;;;0.50;;
15383;SDS011;7790;53.022;12.968;2024-02-14T07:07:43;0.60;;;0.60;;
15383;SDS011;7790;53.022;12.968;2024-02-14T07:11:43;0.80;;;0.80;;
15383;SDS011;7790;53.022;12.968;2024-02-14T07:15:45;0.77;;;0.77;;
15383;SDS011;7790;53.022;12.968;2024-02-14T07:19:46;0.70;;;0.70;;
15383;SDS011;7790;53.022;12.968;2024-02-14T07:23:50;0.60;;;0.60;;
15383;SDS011;7790;53.022;12.968;2024-02-14T07:27:51;0.50;;;0.50;;
15383;SDS011;7790;53.022;12.968;2024-02-14T07:31:52;0.80;;;0.80;;
15383;SDS011;7790;53.022;12.968;2024-02-14T07:35:52;1.53;;;0.83;;
15383;SDS011;7790;53.022;12.968;2024-02-14T07:39:53;1.00;;;1.00;;
15383;SDS011;7790;53.022;12.968;2024-02-14T07:43:54;2.30;;;0.90;;
15383;SDS011;7790;53.022;12.968;2024-02-14T07:47:56;2.33;;;1.07;;
15383;SDS011;7790;53.022;12.968;2024-02-14T07:51:57;1.07;;;0.90;;
15383;SDS011;7790;53.022;12.968;2024-02-14T07:55:58;1.73;;;1.00;;
15383;SDS011;7790;53.022;12.968;2024-02-14T07:59:59;1.00;;;1.00;;
15383;SDS011;7790;53.022;12.968;2024-02-14T08:04:00;1.00;;;1.00;;
15383;SDS011;7790;53.022;12.968;2024-02-14T08:08:01;0.83;;;0.83;;
15383;SDS011;7790;53.022;12.968;2024-02-14T08:12:01;2.53;;;1.20;;
15383;SDS011;7790;53.022;12.968;2024-02-14T08:16:03;2.20;;;0.90;;
15383;SDS011;7790;53.022;12.968;2024-02-14T08:20:04;1.10;;;1.00;;
15383;SDS011;7790;53.022;12.968;2024-02-14T08:24:05;3.20;;;1.33;;
15383;SDS011;7790;53.022;12.968;2024-02-14T08:28:06;2.13;;;0.90;;
15383;SDS011;7790;53.022;12.968;2024-02-14T08:32:07;1.37;;;0.97;;
15383;SDS011;7790;53.022;12.968;2024-02-14T08:36:08;3.67;;;1.10;;
15383;SDS011;7790;53.022;12.968;2024-02-14T08:40:09;1.37;;;0.90;;
15383;SDS011;7790;53.022;12.968;2024-02-14T08:44:12;0.80;;;0.80;;
15383;SDS011;7790;53.022;12.968;2024-02-14T08:48:13;2.20;;;0.80;;
15383;SDS011;7790;53.022;12.968;2024-02-14T08:52:15;1.07;;;0.80;;
15383;SDS011;7790;53.022;12.968;2024-02-14T08:56:17;1.07;;;0.87;;
15383;SDS011;7790;53.022;12.968;2024-02-14T09:00:17;0.80;;;0.80;;
15383;SDS011;7790;53.022;12.968;2024-02-14T09:04:22;1.37;;;1.00;;
15383;SDS011;7790;53.022;12.968;2024-02-14T09:08:23;1.07;;;0.90;;
15383;SDS011;7790;53.022;12.968;2024-02-14T09:12:24;1.30;;;1.00;;
15383;SDS011;7790;53.022;12.968;2024-02-14T09:16:25;0.93;;;0.80;;
15383;SDS011;7790;53.022;12.968;2024-02-14T09:20:25;0.90;;;0.90;;
15383;SDS011;7790;53.022;12.968;2024-02-14T09:24:26;0.80;;;0.80;;
15383;SDS011;7790;53.022;12.968;2024-02-14T09:28:27;1.10;;;0.80;;
15383;SDS011;7790;53.022;12.968;2024-02-14T09:32:28;0.80;;;0.80;;
15383;SDS011;7790;53.022;12.968;2024-02-14T09:36:29;1.33;;;0.80;;
15383;SDS011;7790;53.022;12.968;2024-02-14T09:40:30;1.17;;;0.60;;
15383;SDS011;7790;53.022;12.968;2024-02-14T09:44:31;0.77;;;0.77;;
15383;SDS011;7790;53.022;12.968;2024-02-14T09:48:34;0.80;;;0.80;;
15383;SDS011;7790;53.022;12.968;2024-02-14T09:52:38;0.70;;;0.70;;
15383;SDS011;7790;53.022;12.968;2024-02-14T09:56:39;0.67;;;0.60;;
15383;SDS011;7790;53.022;12.968;2024-02-14T10:00:40;0.70;;;0.70;;
15383;SDS011;7790;53.022;12.968;2024-02-14T10:04:41;0.90;;;0.90;;
15383;SDS011;7790;53.022;12.968;2024-02-14T10:08:42;0.87;;;0.80;;
15383;SDS011;7790;53.022;12.968;2024-02-14T10:12:43;0.97;;;0.80;;
15383;SDS011;7790;53.022;12.968;2024-02-14T10:16:44;0.90;;;0.90;;
15383;SDS011;7790;53.022;12.968;2024-02-14T10:20:52;0.70;;;0.70;;
15383;SDS011;7790;53.022;12.968;2024-02-14T10:24:56;0.57;;;0.57;;
15383;SDS011;7790;53.022;12.968;2024-02-14T10:28:57;0.70;;;0.67;;
15383;SDS011;7790;53.022;12.968;2024-02-14T10:32:58;0.60;;;0.60;;
15383;SDS011;7790;53.022;12.968;2024-02-14T10:36:59;0.93;;;0.70;;
15383;SDS011;7790;53.022;12.968;2024-02-14T10:41:02;1.40;;;0.77;;
15383;SDS011;7790;53.022;12.968;2024-02-14T10:45:03;0.93;;;0.73;;
15383;SDS011;7790;53.022;12.968;2024-02-14T10:49:06;2.93;;;0.67;;
15383;SDS011;7790;53.022;12.968;2024-02-14T10:53:11;2.97;;;0.90;;
15383;SDS011;7790;53.022;12.968;2024-02-14T10:57:14;4.83;;;0.70;;
15383;SDS011;7790;53.022;12.968;2024-02-14T11:01:17;1.97;;;0.70;;
15383;SDS011;7790;53.022;12.968;2024-02-14T11:05:20;0.63;;;0.63;;
15383;SDS011;7790;53.022;12.968;2024-02-14T11:09:32;0.80;;;0.50;;
15383;SDS011;7790;53.022;12.968;2024-02-14T11:13:36;1.50;;;0.80;;
15383;SDS011;7790;53.022;12.968;2024-02-14T11:17:38;0.80;;;0.80;;
15383;SDS011;7790;53.022;12.968;2024-02-14T11:21:39;0.67;;;0.67;;
15383;SDS011;7790;53.022;12.968;2024-02-14T11:25:46;0.43;;;0.43;;
15383;SDS011;7790;53.022;12.968;2024-02-14T11:29:51;0.73;;;0.73;;
15383;SDS011;7790;53.022;12.968;2024-02-14T11:33:53;0.80;;;0.63;;
15383;SDS011;7790;53.022;12.968;2024-02-14T11:37:56;0.50;;;0.50;;
15383;SDS011;7790;53.022;12.968;2024-02-14T11:41:58;0.73;;;0.50;;
15383;SDS011;7790;53.022;12.968;2024-02-14T11:46:00;0.60;;;0.60;;
15383;SDS011;7790;53.022;12.968;2024-02-14T11:50:01;1.07;;;0.60;;
15383;SDS011;7790;53.022;12.968;2024-02-14T11:54:04;0.43;;;0.43;;
15383;SDS011;7790;53.022;12.968;2024-02-14T11:58:10;0.70;;;0.60;;
15383;SDS011;7790;53.022;12.968;2024-02-14T12:02:13;0.50;;;0.50;;
15383;SDS011;7790;53.022;12.968;2024-02-14T12:06:14;0.60;;;0.60;;
15383;SDS011;7790;53.022;12.968;2024-02-14T12:10:15;0.77;;;0.53;;
15383;SDS011;7790;53.022;12.968;2024-02-14T12:14:17;0.63;;;0.60;;
15383;SDS011;7790;53.022;12.968;2024-02-14T12:18:20;0.60;;;0.60;;
15383;SDS011;7790;53.022;12.968;2024-02-14T12:22:21;0.50;;;0.50;;
15383;SDS011;7790;53.022;12.968;2024-02-14T12:26:22;0.40;;;0.40;;
15383;SDS011;7790;53.022;12.968;2024-02-14T12:30:22;0.60;;;0.60;;
15383;SDS011;7790;53.022;12.968;2024-02-14T12:34:28;0.57;;;0.57;;
15383;SDS011;7790;53.022;12.968;2024-02-14T12:38:29;0.50;;;0.50;;
15383;SDS011;7790;53.022;12.968;2024-02-14T12:42:30;3.37;;;0.70;;
15383;SDS011;7790;53.022;12.968;2024-02-14T12:46:32;0.50;;;0.40;;
15383;SDS011;7790;53.022;12.968;2024-02-14T12:50:34;0.80;;;0.50;;
15383;SDS011;7790;53.022;12.968;2024-02-14T12:54:35;0.50;;;0.50;;
15383;SDS011;7790;53.022;12.968;2024-02-14T12:58:36;0.57;;;0.50;;
15383;SDS011;7790;53.022;12.968;2024-02-14T13:02:37;1.03;;;0.30;;
15383;SDS011;7790;53.022;12.968;2024-02-14T13:06:40;0.70;;;0.50;;
15383;SDS011;7790;53.022;12.968;2024-02-14T13:10:41;0.67;;;0.43;;
15383;SDS011;7790;53.022;12.968;2024-02-14T13:14:42;1.03;;;0.50;;
15383;SDS011;7790;53.022;12.968;2024-02-14T13:18:43;0.60;;;0.60;;
15383;SDS011;7790;53.022;12.968;2024-02-14T13:22:44;0.63;;;0.63;;
15383;SDS011;7790;53.022;12.968;2024-02-14T13:26:44;1.40;;;0.50;;
15383;SDS011;7790;53.022;12.968;2024-02-14T13:30:45;0.43;;;0.43;;
15383;SDS011;7790;53.022;12.968;2024-02-14T13:34:46;0.97;;;0.50;;
15383;SDS011;7790;53.022;12.968;2024-02-14T13:38:48;0.63;;;0.60;;
15383;SDS011;7790;53.022;12.968;2024-02-14T13:42:49;0.43;;;0.43;;
15383;SDS011;7790;53.022;12.968;2024-02-14T13:46:50;0.50;;;0.50;;
15383;SDS011;7790;53.022;12.968;2024-02-14T13:50:52;0.47;;;0.47;;
15383;SDS011;7790;53.022;12.968;2024-02-14T13:54:53;0.47;;;0.40;;
15383;SDS011;7790;53.022;12.968;2024-02-14T13:58:54;0.90;;;0.53;;
15383;SDS011;7790;53.022;12.968;2024-02-14T14:02:55;0.53;;;0.30;;
15383;SDS011;7790;53.022;12.968;2024-02-14T14:06:56;1.53;;;0.50;;
15383;SDS011;7790;53.022;12.968;2024-02-14T14:10:58;1.07;;;0.50;;
15383;SDS011;7790;53.022;12.968;2024-02-14T14:15:00;0.50;;;0.50;;
15383;SDS011;7790;53.022;12.968;2024-02-14T14:19:01;1.33;;;0.73;;
15383;SDS011;7790;53.022;12.968;2024-02-14T14:23:03;0.97;;;0.60;;
15383;SDS011;7790;53.022;12.968;2024-02-14T14:27:04;1.50;;;0.60;;
15383;SDS011;7790;53.022;12.968;2024-02-14T14:31:09;0.77;;;0.40;;
15383;SDS011;7790;53.022;12.968;2024-02-14T14:35:11;3.63;;;0.50;;
15383;SDS011;7790;53.022;12.968;2024-02-14T14:39:12;2.33;;;0.50;;
15383;SDS011;7790;53.022;12.968;2024-02-14T14:43:13;2.10;;;0.60;;
15383;SDS011;7790;53.022;12.968;2024-02-14T14:47:14;1.30;;;0.73;;
15383;SDS011;7790;53.022;12.968;2024-02-14T14:51:15;0.73;;;0.50;;
15383;SDS011;7790;53.022;12.968;2024-02-14T14:55:16;0.40;;;0.40;;
15383;SDS011;7790;53.022;12.968;2024-02-14T14:59:16;1.77;;;0.40;;
15383;SDS011;7790;53.022;12.968;2024-02-14T15:03:19;0.57;;;0.40;;
15383;SDS011;7790;53.022;12.968;2024-02-14T15:07:20;0.97;;;0.50;;
15383;SDS011;7790;53.022;12.968;2024-02-14T15:11:21;1.03;;;0.50;;
15383;SDS011;7790;53.022;12.968;2024-02-14T15:15:22;0.73;;;0.40;;
15383;SDS011;7790;53.022;12.968;2024-02-14T15:19:23;1.07;;;0.40;;
15383;SDS011;7790;53.022;12.968;2024-02-14T15:23:24;0.30;;;0.30;;
15383;SDS011;7790;53.022;12.968;2024-02-14T15:27:25;0.20;;;0.20;;
15383;SDS011;7790;53.022;12.968;2024-02-14T15:31:27;0.40;;;0.30;;
15383;SDS011;7790;53.022;12.968;2024-02-14T15:35:46;0.97;;;0.40;;
15383;SDS011;7790;53.022;12.968;2024-02-14T15:39:47;0.30;;;0.30;;
15383;SDS011;7790;53.022;12.968;2024-02-14T15:43:48;0.30;;;0.30;;
15383;SDS011;7790;53.022;12.968;2024-02-14T15:47:49;1.03;;;0.37;;
15383;SDS011;7790;53.022;12.968;2024-02-14T15:51:50;0.20;;;0.20;;
15383;SDS011;7790;53.022;12.968;2024-02-14T15:55:51;0.40;;;0.40;;
15383;SDS011;7790;53.022;12.968;2024-02-14T15:59:52;0.30;;;0.30;;
15383;SDS011;7790;53.022;12.968;2024-02-14T16:03:53;0.43;;;0.30;;
15383;SDS011;7790;53.022;12.968;2024-02-14T16:07:54;0.63;;;0.43;;
15383;SDS011;7790;53.022;12.968;2024-02-14T16:11:55;1.33;;;0.50;;
15383;SDS011;7790;53.022;12.968;2024-02-14T16:15:56;4.97;;;0.60;;
15383;SDS011;7790;53.022;12.968;2024-02-14T16:19:57;0.50;;;0.40;;
15383;SDS011;7790;53.022;12.968;2024-02-14T16:23:58;1.07;;;0.50;;
15383;SDS011;7790;53.022;12.968;2024-02-14T16:27:59;2.97;;;0.60;;
15383;SDS011;7790;53.022;12.968;2024-02-14T16:32:00;0.80;;;0.40;;
15383;SDS011;7790;53.022;12.968;2024-02-14T16:36:01;0.80;;;0.80;;
15383;SDS011;7790;53.022;12.968;2024-02-14T16:40:01;1.93;;;0.80;;
15383;SDS011;7790;53.022;12.968;2024-02-14T16:44:03;3.27;;;1.00;;
15383;SDS011;7790;53.022;12.968;2024-02-14T16:48:05;1.40;;;0.70;;
15383;SDS011;7790;53.022;12.968;2024-02-14T16:52:07;4.33;;;0.63;;
15383;SDS011;7790;53.022;12.968;2024-02-14T16:56:08;3.60;;;0.70;;
15383;SDS011;7790;53.022;12.968;2024-02-14T17:00:09;2.47;;;0.80;;
15383;SDS011;7790;53.022;12.968;2024-02-14T17:04:10;4.07;;;1.10;;
15383;SDS011;7790;53.022;12.968;2024-02-14T17:08:11;1.77;;;0.70;;
15383;SDS011;7790;53.022;12.968;2024-02-14T17:12:12;2.95;;;1.00;;
15383;SDS011;7790;53.022;12.968;2024-02-14T17:16:13;1.23;;;0.77;;
15383;SDS011;7790;53.022;12.968;2024-02-14T17:20:15;4.57;;;0.90;;
15383;SDS011;7790;53.022;12.968;2024-02-14T17:24:17;3.13;;;0.97;;
15383;SDS011;7790;53.022;12.968;2024-02-14T17:28:18;1.53;;;0.80;;
15383;SDS011;7790;53.022;12.968;2024-02-14T17:32:19;1.60;;;0.77;;
15383;SDS011;7790;53.022;12.968;2024-02-14T17:36:21;3.77;;;1.03;;
15383;SDS011;7790;53.022;12.968;2024-02-14T17:40:24;7.10;;;1.53;;
15383;SDS011;7790;53.022;12.968;2024-02-14T17:44:25;3.77;;;1.10;;
15383;SDS011;7790;53.022;12.968;2024-02-14T17:48:26;2.30;;;1.00;;
15383;SDS011;7790;53.022;12.968;2024-02-14T17:52:27;6.27;;;1.00;;
15383;SDS011;7790;53.022;12.968;2024-02-14T17:56:28;1.47;;;0.90;;
15383;SDS011;7790;53.022;12.968;2024-02-14T18:00:29;1.57;;;0.63;;
15383;SDS011;7790;53.022;12.968;2024-02-14T18:04:30;3.67;;;0.93;;
15383;SDS011;7790;53.022;12.968;2024-02-14T18:08:31;2.13;;;1.03;;
15383;SDS011;7790;53.022;12.968;2024-02-14T18:12:32;2.33;;;0.90;;
15383;SDS011;7790;53.022;12.968;2024-02-14T18:16:33;3.60;;;0.80;;
15383;SDS011;7790;53.022;12.968;2024-02-14T18:20:34;3.60;;;1.03;;
15383;SDS011;7790;53.022;12.968;2024-02-14T18:24:35;1.37;;;0.90;;
15383;SDS011;7790;53.022;12.968;2024-02-14T18:28:36;1.97;;;1.00;;
15383;SDS011;7790;53.022;12.968;2024-02-14T18:32:37;1.10;;;1.00;;
15383;SDS011;7790;53.022;12.968;2024-02-14T18:36:39;3.23;;;0.87;;
15383;SDS011;7790;53.022;12.968;2024-02-14T18:40:39;0.87;;;0.80;;
15383;SDS011;7790;53.022;12.968;2024-02-14T18:44:41;2.20;;;0.80;;
15383;SDS011;7790;53.022;12.968;2024-02-14T18:48:42;1.00;;;0.87;;
15383;SDS011;7790;53.022;12.968;2024-02-14T18:52:43;0.80;;;0.53;;
15383;SDS011;7790;53.022;12.968;2024-02-14T18:56:44;1.33;;;0.60;;
15383;SDS011;7790;53.022;12.968;2024-02-14T19:00:45;0.83;;;0.60;;
15383;SDS011;7790;53.022;12.968;2024-02-14T19:04:46;1.07;;;0.77;;
15383;SDS011;7790;53.022;12.968;2024-02-14T19:08:47;0.50;;;0.50;;
15383;SDS011;7790;53.022;12.968;2024-02-14T19:12:48;0.80;;;0.60;;
15383;SDS011;7790;53.022;12.968;2024-02-14T19:16:49;0.70;;;0.50;;
15383;SDS011;7790;53.022;12.968;2024-02-14T19:20:50;0.80;;;0.60;;
15383;SDS011;7790;53.022;12.968;2024-02-14T19:24:52;1.40;;;0.60;;
15383;SDS011;7790;53.022;12.968;2024-02-14T19:28:53;0.87;;;0.57;;
15383;SDS011;7790;53.022;12.968;2024-02-14T19:32:54;1.87;;;0.83;;
15383;SDS011;7790;53.022;12.968;2024-02-14T19:36:55;1.73;;;0.70;;
15383;SDS011;7790;53.022;12.968;2024-02-14T19:40:56;3.80;;;0.80;;
15383;SDS011;7790;53.022;12.968;2024-02-14T19:44:57;2.03;;;0.90;;
15383;SDS011;7790;53.022;12.968;2024-02-14T19:48:57;3.30;;;1.10;;
15383;SDS011;7790;53.022;12.968;2024-02-14T19:52:58;3.93;;;1.10;;
15383;SDS011;7790;53.022;12.968;2024-02-14T19:56:59;0.73;;;0.67;;
15383;SDS011;7790;53.022;12.968;2024-02-14T20:01:00;4.70;;;0.90;;
15383;SDS011;7790;53.022;12.968;2024-02-14T20:05:01;3.63;;;0.70;;
15383;SDS011;7790;53.022;12.968;2024-02-14T20:09:09;0.97;;;0.70;;
15383;SDS011;7790;53.022;12.968;2024-02-14T20:13:11;0.97;;;0.77;;
15383;SDS011;7790;53.022;12.968;2024-02-14T20:17:11;3.10;;;0.67;;
15383;SDS011;7790;53.022;12.968;2024-02-14T20:21:13;1.20;;;0.87;;
15383;SDS011;7790;53.022;12.968;2024-02-14T20:25:15;1.60;;;0.83;;
15383;SDS011;7790;53.022;12.968;2024-02-14T20:29:16;1.90;;;0.67;;
15383;SDS011;7790;53.022;12.968;2024-02-14T20:33:17;1.30;;;0.70;;
15383;SDS011;7790;53.022;12.968;2024-02-14T20:37:18;0.87;;;0.63;;
15383;SDS011;7790;53.022;12.968;2024-02-14T20:41:19;1.03;;;0.73;;
15383;SDS011;7790;53.022;12.968;2024-02-14T20:45:20;0.70;;;0.50;;
15383;SDS011;7790;53.022;12.968;2024-02-14T20:49:21;2.07;;;0.70;;
15383;SDS011;7790;53.022;12.968;2024-02-14T20:53:21;0.67;;;0.60;;
15383;SDS011;7790;53.022;12.968;2024-02-14T20:57:22;0.67;;;0.63;;
15383;SDS011;7790;53.022;12.968;2024-02-14T21:01:23;0.73;;;0.50;;
15383;SDS011;7790;53.022;12.968;2024-02-14T21:05:24;1.77;;;0.90;;
15383;SDS011;7790;53.022;12.968;2024-02-14T21:09:26;0.60;;;0.60;;
15383;SDS011;7790;53.022;12.968;2024-02-14T21:13:29;0.53;;;0.50;;
15383;SDS011;7790;53.022;12.968;2024-02-14T21:17:29;0.50;;;0.50;;
15383;SDS011;7790;53.022;12.968;2024-02-14T21:21:34;0.43;;;0.43;;
15383;SDS011;7790;53.022;12.968;2024-02-14T21:25:35;1.00;;;0.50;;
15383;SDS011;7790;53.022;12.968;2024-02-14T21:29:36;1.60;;;0.70;;
15383;SDS011;7790;53.022;12.968;2024-02-14T21:33:37;0.50;;;0.50;;
15383;SDS011;7790;53.022;12.968;2024-02-14T21:37:38;1.50;;;0.53;;
15383;SDS011;7790;53.022;12.968;2024-02-14T21:41:39;0.60;;;0.60;;
15383;SDS011;7790;53.022;12.968;2024-02-14T21:45:41;0.97;;;0.50;;
15383;SDS011;7790;53.022;12.968;2024-02-14T21:49:42;0.63;;;0.53;;
15383;SDS011;7790;53.022;12.968;2024-02-14T21:53:45;0.50;;;0.50;;
15383;SDS011;7790;53.022;12.968;2024-02-14T21:57:46;1.23;;;0.60;;
15383;SDS011;7790;53.022;12.968;2024-02-14T22:01:46;0.40;;;0.40;;
15383;SDS011;7790;53.022;12.968;2024-02-14T22:05:47;0.63;;;0.40;;
15383;SDS011;7790;53.022;12.968;2024-02-14T22:09:48;0.63;;;0.27;;
15383;SDS011;7790;53.022;12.968;2024-02-14T22:13:49;0.60;;;0.60;;
15383;SDS011;7790;53.022;12.968;2024-02-14T22:17:51;0.53;;;0.40;;
15383;SDS011;7790;53.022;12.968;2024-02-14T22:21:52;0.70;;;0.50;;
15383;SDS011;7790;53.022;12.968;2024-02-14T22:25:52;0.47;;;0.47;;
15383;SDS011;7790;53.022;12.968;2024-02-14T22:29:54;0.70;;;0.70;;
15383;SDS011;7790;53.022;12.968;2024-02-14T22:33:55;2.60;;;0.50;;
15383;SDS011;7790;53.022;12.968;2024-02-14T22:37:56;0.93;;;0.60;;
15383;SDS011;7790;53.022;12.968;2024-02-14T22:41:57;0.50;;;0.50;;
15383;SDS011;7790;53.022;12.968;2024-02-14T22:45:58;1.90;;;0.50;;
15383;SDS011;7790;53.022;12.968;2024-02-14T22:49:59;0.40;;;0.40;;
15383;SDS011;7790;53.022;12.968;2024-02-14T22:54:00;0.90;;;0.50;;
15383;SDS011;7790;53.022;12.968;2024-02-14T22:58:02;0.47;;;0.47;;
15383;SDS011;7790;53.022;12.968;2024-02-14T23:02:04;0.60;;;0.60;;
15383;SDS011;7790;53.022;12.968;2024-02-14T23:06:05;1.67;;;0.80;;
15383;SDS011;7790;53.022;12.968;2024-02-14T23:10:07;0.50;;;0.50;;
15383;SDS011;7790;53.022;12.968;2024-02-14T23:14:09;0.50;;;0.50;;
15383;SDS011;7790;53.022;12.968;2024-02-14T23:18:10;0.40;;;0.40;;
15383;SDS011;7790;53.022;12.968;2024-02-14T23:22:11;0.50;;;0.47;;
15383;SDS011;7790;53.022;12.968;2024-02-14T23:26:13;0.80;;;0.50;;
15383;SDS011;7790;53.022;12.968;2024-02-14T23:30:14;1.30;;;0.70;;
15383;SDS011;7790;53.022;12.968;2024-02-14T23:34:15;0.40;;;0.40;;
15383;SDS011;7790;53.022;12.968;2024-02-14T23:38:16;0.57;;;0.57;;
15383;SDS011;7790;53.022;12.968;2024-02-14T23:42:16;0.40;;;0.40;;
15383;SDS011;7790;53.022;12.968;2024-02-14T23:46:17;1.13;;;0.70;;
15383;SDS011;7790;53.022;12.968;2024-02-14T23:50:19;0.67;;;0.50;;
15383;SDS011;7790;53.022;12.968;2024-02-14T23:54:20;1.33;;;0.50;;
15383;SDS011;7790;53.022;12.968;2024-02-14T23:58:20;0.53;;;0.30;;
